Hauptseite
METAR-TAF:

METAR-TAF

Flughäfen :

Pond Inlet, Nunavut, Kanada

Breite: 72-42N, Länge: 077-58W, Höhe: 59 m

Beobachtung

Neuester Wetterbericht von vor 1 Stunde und 18 Minuten, um 21:00 UTC
Wind 9 kt aus Süd
Temperatur -29°C
Luftfeuchtigkeit 75%
Luftdruck 1026 hPa
Sichtweite: 11.3 km
Himmel klar

METAR: CYIO 092100Z AUTO 19009KT 7SM CLR M29/M32 A3029 RMK SLP272

Zeit: 17:18 (22:18 UTC)

Prognose

Neuester Wetterbericht von vor 3 Stunden und 40 Minuten, um 18:38 UTC
Gültige Prognose vom 09 um 19 UTC bis 10 um 07 UTC
Wind 8 kt aus Süd
Sichtweite: 10 km
Himmel klar

TAF: CYIO 091838Z 0919/1007 18008KT P6SM SKC RMK FCST BASED ON AUTO OBS. NXT FCST BY 100100Z

Wetterbeobachtungen und Prognosen von mehr als 4000 Flughäfen (METAR und TAF Bericht).

Die verfügbaren Stationen werden durch gelbe und rote Markierungen auf der Karte dargestellt.

Führen Sie die Maus auf sie, um den Namen der Station zu sehen.

Darauf klicken, um die Beobachtung von Wetterbeobachtungen und Prognosen zu sehen.

Um die Karte zu ändern : klicken Sie auf den grünen Tasten mit einem schwarzen Kreuz Zum Vergrößern, auf den grünen Button mit einem Gedankenstrich zu verkleinern, oder auf die grünen Pfeile für benachbarte Karten.


METAR-TAF: